Time;durP1;ratioP1;P1;durP2;ratioP2;P2;SDS_P1;SDS_P2;PMS_P1;PMS_P2;Temp;Humidity;BMP_temperature;BMP_pressure;BME280_temperature;BME280_humidity;BME280_pressure;Samples;Min_cycle;Max_cycle;Signal;HPM_P1;HPM_P2
2023/05/16 00:05:31;;;;;;;77.53;10.80;;;13.20;99.90;;;;;;4880745;29;20836;-87
2023/05/16 00:08:28;;;;;;;71.70;9.73;;;13.20;99.90;;;;;;4900062;29;20509;-87
2023/05/16 00:11:05;;;;;;;75.03;8.70;;;13.10;99.90;;;;;;4900298;29;20406;-88
2023/05/16 00:13:41;;;;;;;70.23;9.07;;;13.10;99.90;;;;;;4899325;29;20829;-87
2023/05/16 00:19:59;;;;;;;72.17;10.07;;;13.00;99.90;;;;;;4861087;29;20408;-88
2023/05/16 00:22:40;;;;;;;69.93;9.13;;;13.10;99.90;;;;;;4874782;29;20438;-88
2023/05/16 00:54:05;;;;;;;;;;;;;;;;;;;;;
2023/05/16 02:06:51;;;;;;;85.30;52.60;;;11.10;99.90;;;;;;2885205;23;20236;-89
2023/05/16 02:09:46;;;;;;;96.07;55.47;;;11.00;99.90;;;;;;4900053;29;20629;-90
2023/05/16 02:27:07;;;;;;;80.07;37.30;;;10.90;99.90;;;;;;4859226;29;20191;-92
2023/05/16 02:29:53;;;;;;;88.82;59.63;;;10.90;99.90;;;;;;4857917;29;20204;-92
2023/05/16 02:36:45;;;;;;;83.18;46.90;;;10.80;99.90;;;;;;4824306;29;20196;-91
2023/05/16 02:39:36;;;;;;;85.30;54.53;;;10.80;99.90;;;;;;4844401;29;20248;-91
2023/05/16 02:42:14;;;;;;;85.40;50.90;;;10.70;99.90;;;;;;4843937;29;20280;-91
2023/05/16 02:44:42;;;;;;;92.78;65.05;;;10.70;99.90;;;;;;4843882;29;20647;-90
2023/05/16 02:47:08;;;;;;;95.32;65.15;;;10.80;99.90;;;;;;4870433;29;20206;-90
2023/05/16 02:49:36;;;;;;;98.83;71.50;;;10.70;99.90;;;;;;4878831;29;20262;-90
2023/05/16 02:52:26;;;;;;;94.50;55.00;;;10.60;99.90;;;;;;4879748;29;20246;-91
2023/05/16 02:54:58;;;;;;;94.45;62.20;;;10.60;99.90;;;;;;4878650;29;20205;-90
2023/05/16 02:57:26;;;;;;;92.28;60.38;;;10.60;99.90;;;;;;4878848;29;20682;-90
2023/05/16 02:59:55;;;;;;;89.93;56.38;;;10.60;99.90;;;;;;4878789;29;20261;-90
2023/05/16 03:02:28;;;;;;;92.53;50.67;;;10.60;99.90;;;;;;4878936;29;20227;-90
2023/05/16 03:05:00;;;;;;;86.07;48.40;;;10.50;99.90;;;;;;4878240;29;20261;-90
2023/05/16 03:07:25;;;;;;;83.72;42.15;;;10.50;99.90;;;;;;4879516;29;20198;-90
2023/05/16 03:10:02;;;;;;;88.07;52.90;;;10.50;99.90;;;;;;4879763;29;20258;-90
2023/05/16 03:12:27;;;;;;;86.30;45.08;;;10.50;99.90;;;;;;4878810;29;20170;-89
2023/05/16 03:14:53;;;;;;;91.43;50.20;;;10.50;99.90;;;;;;4878255;29;20593;-89
2023/05/16 03:17:19;;;;;;;95.00;43.77;;;10.60;99.90;;;;;;4879436;29;20206;-88
2023/05/16 03:19:45;;;;;;;85.50;40.13;;;10.50;99.90;;;;;;4879652;29;20170;-87
2023/05/16 03:22:11;;;;;;;91.75;53.65;;;10.50;99.90;;;;;;4960557;23;20501;-87
2023/05/16 03:24:36;;;;;;;86.57;43.73;;;10.50;99.90;;;;;;4904479;29;20698;-86
2023/05/16 03:27:03;;;;;;;94.63;50.00;;;10.30;99.90;;;;;;4903541;29;20669;-85
2023/05/16 03:29:29;;;;;;;92.88;47.63;;;10.30;99.90;;;;;;4904159;29;20170;-86
2023/05/16 03:31:55;;;;;;;84.38;42.20;;;10.30;99.90;;;;;;4904325;29;20182;-85
2023/05/16 03:34:24;;;;;;;92.80;55.63;;;10.20;99.90;;;;;;4904312;29;20235;-86
2023/05/16 03:36:50;;;;;;;84.70;35.40;;;10.20;99.90;;;;;;4904032;29;20442;-86
2023/05/16 03:39:16;;;;;;;84.10;34.50;;;10.30;99.90;;;;;;4904041;29;20169;-86
2023/05/16 03:41:42;;;;;;;85.47;38.20;;;10.20;99.90;;;;;;4904916;29;20197;-86
2023/05/16 03:44:08;;;;;;;86.85;45.42;;;10.20;99.90;;;;;;4905142;29;20537;-86
2023/05/16 03:46:34;;;;;;;96.00;47.83;;;10.10;99.90;;;;;;4905664;29;20186;-86
2023/05/16 03:49:00;;;;;;;83.53;37.42;;;10.10;99.90;;;;;;4907473;29;20178;-85
2023/05/16 03:51:26;;;;;;;85.90;40.87;;;10.20;99.90;;;;;;4907020;29;20174;-86
2023/05/16 03:53:52;;;;;;;85.38;38.92;;;10.20;99.90;;;;;;4906354;29;20158;-86
2023/05/16 03:56:18;;;;;;;84.53;34.20;;;10.10;99.90;;;;;;4905041;29;20545;-86
2023/05/16 03:58:44;;;;;;;92.23;38.60;;;10.00;99.90;;;;;;4903471;29;20458;-86
2023/05/16 04:01:09;;;;;;;79.77;32.27;;;10.00;99.90;;;;;;4903190;29;20429;-86
2023/05/16 04:03:37;;;;;;;88.23;36.87;;;10.10;99.90;;;;;;4904049;29;20170;-86
2023/05/16 04:06:03;;;;;;;89.80;39.00;;;10.00;99.90;;;;;;4903184;29;20182;-86
2023/05/16 04:08:31;;;;;;;84.00;35.33;;;10.10;99.90;;;;;;4902388;29;20185;-86
2023/05/16 04:10:57;;;;;;;92.88;39.85;;;10.20;99.90;;;;;;4904055;29;20505;-86
2023/05/16 04:13:22;;;;;;;87.30;44.50;;;10.10;99.90;;;;;;4904450;29;20197;-87
2023/05/16 04:15:48;;;;;;;85.17;31.07;;;10.10;99.90;;;;;;4902803;29;20241;-86
2023/05/16 04:18:14;;;;;;;89.20;36.03;;;10.10;99.90;;;;;;4903409;29;20193;-86
2023/05/16 04:20:41;;;;;;;86.80;29.67;;;10.00;99.90;;;;;;4903248;29;20178;-86
2023/05/16 04:23:09;;;;;;;82.63;35.33;;;10.10;99.90;;;;;;4903672;29;20186;-86
2023/05/16 04:25:35;;;;;;;86.45;37.30;;;10.00;99.90;;;;;;4903113;29;20304;-86
2023/05/16 04:28:01;;;;;;;90.83;35.80;;;10.00;99.90;;;;;;4904127;29;20231;-86
2023/05/16 04:30:26;;;;;;;81.90;27.00;;;10.10;99.90;;;;;;4905515;29;20166;-86
2023/05/16 04:32:52;;;;;;;87.83;31.00;;;10.10;99.90;;;;;;4904149;29;20713;-86
2023/05/16 04:35:18;;;;;;;85.27;27.10;;;10.00;99.90;;;;;;4904427;29;20166;-87
2023/05/16 04:37:43;;;;;;;83.40;30.40;;;10.00;99.90;;;;;;4903320;29;20196;-87
2023/05/16 04:40:10;;;;;;;80.93;27.90;;;10.00;99.90;;;;;;4902923;29;20258;-87
2023/05/16 04:42:35;;;;;;;79.93;27.33;;;9.90;99.90;;;;;;4902766;29;20261;-86
2023/05/16 04:45:05;;;;;;;84.37;22.77;;;9.90;99.90;;;;;;4902602;29;20209;-86
2023/05/16 04:47:31;;;;;;;94.78;16.90;;;10.00;99.90;;;;;;4902415;29;20194;-87
2023/05/16 04:49:57;;;;;;;82.88;15.68;;;10.10;99.90;;;;;;4902826;29;20174;-86
2023/05/16 04:52:22;;;;;;;83.43;15.50;;;10.00;99.90;;;;;;4904627;29;20252;-87
2023/05/16 04:54:51;;;;;;;83.13;15.07;;;9.90;99.90;;;;;;4903541;29;20174;-87
2023/05/16 04:57:17;;;;;;;76.25;13.73;;;9.90;99.90;;;;;;4902733;29;20205;-87
2023/05/16 04:59:43;;;;;;;78.97;13.07;;;9.80;99.90;;;;;;4904101;29;20167;-87
2023/05/16 05:02:08;;;;;;;82.73;12.17;;;9.80;99.90;;;;;;4902937;29;20418;-87
2023/05/16 05:04:34;;;;;;;78.80;13.50;;;10.00;99.90;;;;;;4904477;29;20168;-86
2023/05/16 05:07:00;;;;;;;78.15;14.93;;;9.90;99.90;;;;;;4903254;29;20185;-86
2023/05/16 05:09:26;;;;;;;83.03;13.20;;;9.80;99.90;;;;;;4901566;29;20182;-86
2023/05/16 05:11:54;;;;;;;84.13;13.87;;;10.00;99.90;;;;;;4900793;29;20254;-86
2023/05/16 05:14:20;;;;;;;74.70;11.23;;;10.20;99.90;;;;;;4900541;29;20181;-86
2023/05/16 05:16:46;;;;;;;87.43;12.10;;;10.40;99.90;;;;;;4899481;29;20685;-86
2023/05/16 05:19:11;;;;;;;79.30;10.43;;;10.60;99.90;;;;;;4901351;29;20170;-86
2023/05/16 05:21:37;;;;;;;80.07;11.83;;;10.70;99.90;;;;;;4901432;29;20185;-86
2023/05/16 05:24:03;;;;;;;81.40;9.23;;;10.90;99.90;;;;;;4899949;29;20543;-86
2023/05/16 05:26:29;;;;;;;81.33;9.37;;;11.10;99.90;;;;;;4901555;29;20670;-86
2023/05/16 05:28:54;;;;;;;77.47;10.40;;;11.20;99.90;;;;;;4900388;29;20407;-86
2023/05/16 05:31:20;;;;;;;78.67;9.30;;;11.00;99.90;;;;;;4901543;29;20927;-86
2023/05/16 05:33:48;;;;;;;82.67;11.27;;;10.90;99.90;;;;;;4901014;29;20257;-86
2023/05/16 05:36:15;;;;;;;76.78;10.73;;;10.80;99.90;;;;;;4898893;29;20190;-85
2023/05/16 05:38:40;;;;;;;76.22;11.10;;;10.80;99.90;;;;;;4900330;29;20199;-86
2023/05/16 05:41:06;;;;;;;78.10;10.57;;;10.60;99.90;;;;;;4900575;29;20174;-86
2023/05/16 05:43:33;;;;;;;74.73;10.80;;;10.50;99.90;;;;;;4899180;29;20526;-86
2023/05/16 05:45:58;;;;;;;84.50;11.45;;;10.40;99.90;;;;;;4900160;29;20189;-86
2023/05/16 05:48:24;;;;;;;82.57;10.50;;;10.50;99.90;;;;;;4898821;29;20542;-85
2023/05/16 05:50:51;;;;;;;82.77;10.30;;;10.60;99.90;;;;;;4900015;29;20644;-86
2023/05/16 05:53:17;;;;;;;79.35;10.00;;;10.50;99.90;;;;;;4898579;29;20181;-86
2023/05/16 05:55:43;;;;;;;77.43;9.63;;;10.40;99.90;;;;;;4898135;29;20565;-85
2023/05/16 05:58:08;;;;;;;83.10;8.90;;;10.40;99.90;;;;;;4898638;29;20766;-86
2023/05/16 06:00:34;;;;;;;76.37;9.90;;;10.40;99.90;;;;;;4898673;29;20645;-86
2023/05/16 06:03:00;;;;;;;82.47;10.00;;;10.50;99.90;;;;;;4899875;29;20172;-85
2023/05/16 06:05:25;;;;;;;77.27;8.87;;;10.60;99.90;;;;;;4898253;29;20223;-86
2023/05/16 06:07:51;;;;;;;74.50;8.30;;;10.50;99.90;;;;;;4900092;29;20500;-86
2023/05/16 06:10:17;;;;;;;73.20;8.03;;;10.50;99.90;;;;;;4898431;29;20174;-86
2023/05/16 06:12:42;;;;;;;78.43;10.70;;;10.60;99.90;;;;;;4899458;29;20201;-85
2023/05/16 06:15:09;;;;;;;82.20;8.67;;;10.40;99.90;;;;;;4898663;29;20200;-85
2023/05/16 06:17:35;;;;;;;77.03;8.98;;;10.30;99.90;;;;;;4898142;29;20201;-86
2023/05/16 06:20:01;;;;;;;88.07;9.80;;;10.40;99.90;;;;;;4897917;29;20235;-86
2023/05/16 06:22:26;;;;;;;84.23;7.87;;;10.40;99.90;;;;;;4898486;29;20197;-86
2023/05/16 06:24:52;;;;;;;81.50;9.07;;;10.50;99.90;;;;;;4898238;29;20170;-86
2023/05/16 06:27:19;;;;;;;74.07;8.07;;;10.60;99.90;;;;;;4899455;29;20189;-86
2023/05/16 06:29:45;;;;;;;77.85;8.30;;;10.60;99.90;;;;;;4899716;29;20194;-86
2023/05/16 06:32:10;;;;;;;76.77;7.80;;;10.60;99.90;;;;;;4898059;29;20170;-86
2023/05/16 06:34:36;;;;;;;77.63;9.00;;;10.80;99.90;;;;;;4899574;29;20481;-86
2023/05/16 06:37:02;;;;;;;77.87;8.80;;;10.90;99.90;;;;;;4899491;29;20222;-85
2023/05/16 06:39:28;;;;;;;77.97;8.65;;;11.00;99.90;;;;;;4898680;29;20174;-85
2023/05/16 06:41:54;;;;;;;82.83;9.50;;;11.10;99.90;;;;;;4899354;29;20192;-86
2023/05/16 06:44:20;;;;;;;78.50;10.70;;;11.30;99.90;;;;;;4900454;29;20652;-86
2023/05/16 06:46:46;;;;;;;77.22;11.52;;;11.60;99.90;;;;;;4899423;29;20577;-86
2023/05/16 06:49:11;;;;;;;72.50;9.97;;;11.70;99.90;;;;;;4898683;29;20188;-86
2023/05/16 06:51:40;;;;;;;82.97;10.17;;;11.70;99.90;;;;;;4900312;29;20511;-86
2023/05/16 06:54:06;;;;;;;74.63;11.73;;;11.70;99.90;;;;;;4898277;29;20548;-86
2023/05/16 06:56:32;;;;;;;73.67;9.40;;;11.60;99.90;;;;;;5022657;23;20232;-86
2023/05/16 06:59:11;;;;;;;69.43;6.47;;;11.70;99.90;;;;;;4903525;29;20820;-86
2023/05/16 07:01:46;;;;;;;78.15;7.18;;;11.90;99.90;;;;;;4904615;29;20154;-85
2023/05/16 07:04:15;;;;;;;73.93;6.53;;;11.60;99.90;;;;;;4904911;29;20176;-85
2023/05/16 07:06:43;;;;;;;68.28;6.22;;;11.80;99.90;;;;;;4902919;29;20186;-86
2023/05/16 07:09:15;;;;;;;71.68;6.00;;;11.70;99.90;;;;;;4902204;29;20178;-86
2023/05/16 07:14:39;;;;;;;73.28;7.10;;;11.80;99.90;;;;;;4876126;29;20398;-85
2023/05/16 07:17:26;;;;;;;77.28;8.23;;;11.90;99.90;;;;;;4903118;29;20696;-86
2023/05/16 07:19:59;;;;;;;76.85;9.15;;;11.90;99.90;;;;;;4902978;29;20634;-86
2023/05/16 07:22:45;;;;;;;73.15;9.38;;;11.70;99.90;;;;;;4902042;29;20275;-85
2023/05/16 07:29:17;;;;;;;70.20;7.20;;;11.70;99.90;;;;;;4878694;29;20186;-86
2023/05/16 07:32:15;;;;;;;76.95;8.15;;;11.30;99.90;;;;;;4866330;29;20185;-86
2023/05/16 07:34:56;;;;;;;75.93;9.18;;;11.20;99.90;;;;;;4895082;29;20182;-86
2023/05/16 07:37:46;;;;;;;72.45;8.23;;;11.30;99.90;;;;;;4901811;29;20221;-86
2023/05/16 07:40:31;;;;;;;76.18;8.05;;;11.30;99.90;;;;;;4901981;29;20577;-85
2023/05/16 07:43:40;;;;;;;;;;;;;;;;;;;;;
2023/05/16 07:46:50;;;;;;;;;;;;;;;;;;;;;
2023/05/16 07:49:52;;;;;;;74.22;7.22;;;11.50;85.90;;;;;;4845830;29;20184;-85
2023/05/16 07:53:34;;;;;;;;;;;;;;;;;;;;;
2023/05/16 07:57:05;;;;;;;;;;;;;;;;;;;;;
2023/05/16 08:10:40;;;;;;;76.95;6.85;;;11.40;52.00;;;;;;4788612;30;20273;-86
2023/05/16 08:20:43;;;;;;;73.00;6.25;;;11.70;47.50;;;;;;4807730;29;20196;-86
2023/05/16 08:27:45;;;;;;;79.38;6.97;;;11.80;33.30;;;;;;4790787;29;20212;-86
2023/05/16 08:42:34;;;;;;;73.82;6.80;;;12.30;1.00;;;;;;3970269;23;20606;-85
2023/05/16 08:45:39;;;;;;;73.18;8.43;;;12.30;1.00;;;;;;4902053;29;20221;-85
2023/05/16 08:52:21;;;;;;;;;;;;;;;;;;;;;
2023/05/16 08:58:28;;;;;;;71.78;6.57;;;12.30;1.00;;;;;;4807141;29;20242;-87
2023/05/16 09:01:23;;;;;;;66.82;4.80;;;12.40;1.00;;;;;;4821401;29;20189;-86
2023/05/16 09:05:03;;;;;;;72.68;7.28;;;12.30;1.00;;;;;;4818905;29;20185;-86
2023/05/16 09:07:51;;;;;;;71.90;6.03;;;12.50;1.00;;;;;;4844120;29;20653;-86
2023/05/16 09:14:09;;;;;;;72.35;3.83;;;12.60;1.00;;;;;;4861913;29;20159;-86
2023/05/16 09:16:43;;;;;;;74.57;3.65;;;12.70;1.00;;;;;;4858508;29;20234;-84
2023/05/16 09:19:22;;;;;;;67.93;3.60;;;12.50;1.00;;;;;;4860680;29;20159;-85
2023/05/16 09:21:54;;;;;;;69.63;3.95;;;12.50;1.00;;;;;;4878569;23;20740;-88
2023/05/16 09:24:25;;;;;;;68.60;4.30;;;12.40;1.00;;;;;;4898351;29;20180;-88
2023/05/16 09:26:53;;;;;;;74.68;4.95;;;12.30;1.00;;;;;;4898213;29;20219;-88
2023/05/16 09:29:23;;;;;;;69.90;6.00;;;12.40;1.00;;;;;;4899907;29;20150;-88
2023/05/16 09:31:49;;;;;;;68.10;5.70;;;12.50;1.00;;;;;;4897779;29;20181;-89
2023/05/16 09:34:38;;;;;;;72.57;5.53;;;12.70;1.00;;;;;;4897937;29;20634;-89
2023/05/16 09:37:14;;;;;;;68.43;4.30;;;12.80;1.00;;;;;;4899068;29;20226;-89
2023/05/16 09:40:02;;;;;;;78.28;4.25;;;13.00;1.00;;;;;;4897952;29;20170;-89
2023/05/16 09:42:40;;;;;;;81.15;4.97;;;13.30;1.00;;;;;;4899235;29;20636;-89
2023/05/16 09:45:31;;;;;;;73.97;4.78;;;13.30;1.00;;;;;;4897751;29;20170;-88
2023/05/16 09:48:13;;;;;;;66.40;4.05;;;13.30;1.00;;;;;;4898866;29;20627;-89
2023/05/16 09:51:06;;;;;;;72.65;3.40;;;13.60;1.00;;;;;;4899397;29;20169;-89
2023/05/16 09:53:40;;;;;;;71.57;4.40;;;13.80;1.00;;;;;;4895306;29;20216;-87
2023/05/16 09:56:10;;;;;;;66.20;3.37;;;14.00;1.00;;;;;;4899095;29;20450;-88
2023/05/16 09:58:42;;;;;;;67.77;3.60;;;14.10;1.00;;;;;;4899087;29;20458;-88
2023/05/16 10:01:12;;;;;;;65.40;3.60;;;14.40;1.00;;;;;;4899946;29;20464;-88
2023/05/16 10:03:41;;;;;;;77.90;4.13;;;14.50;1.00;;;;;;4898752;29;20414;-87
2023/05/16 10:06:07;;;;;;;74.97;4.20;;;14.60;1.00;;;;;;4900634;29;20803;-87
2023/05/16 10:08:35;;;;;;;68.10;4.10;;;14.90;1.00;;;;;;4899344;29;20423;-88
2023/05/16 10:11:05;;;;;;;69.67;3.57;;;15.00;1.00;;;;;;4898806;29;20418;-88
2023/05/16 10:13:33;;;;;;;67.53;4.30;;;15.10;1.00;;;;;;4899167;29;20417;-87
2023/05/16 10:16:11;;;;;;;68.53;4.53;;;15.00;1.00;;;;;;4898593;29;20446;-89
2023/05/16 10:18:41;;;;;;;67.90;3.93;;;14.50;1.00;;;;;;4899663;29;20851;-88
2023/05/16 10:21:18;;;;;;;70.13;4.20;;;14.50;1.00;;;;;;4898130;29;20418;-88
2023/05/16 10:23:48;;;;;;;67.73;3.77;;;14.70;1.00;;;;;;4900457;29;20391;-88
2023/05/16 10:26:20;;;;;;;67.83;4.00;;;15.00;1.00;;;;;;4899052;29;20814;-88
2023/05/16 10:28:46;;;;;;;70.90;3.83;;;15.10;1.00;;;;;;4898885;29;20418;-89
2023/05/16 10:31:14;;;;;;;65.80;3.90;;;15.30;1.00;;;;;;4897039;29;20434;-89
2023/05/16 10:33:43;;;;;;;69.33;5.47;;;15.60;1.00;;;;;;4899000;29;20453;-88
2023/05/16 10:36:09;;;;;;;72.93;7.17;;;15.50;1.00;;;;;;4898309;29;20449;-88
2023/05/16 10:38:37;;;;;;;66.87;5.13;;;15.50;1.00;;;;;;4898068;29;20457;-88
2023/05/16 10:41:03;;;;;;;66.40;4.77;;;15.30;1.00;;;;;;4897991;29;20499;-87
2023/05/16 10:43:29;;;;;;;69.33;5.20;;;15.50;1.00;;;;;;4898120;29;20424;-88
2023/05/16 10:46:10;;;;;;;69.47;5.50;;;15.70;1.00;;;;;;4898204;29;20441;-88
2023/05/16 10:48:39;;;;;;;66.40;5.87;;;15.60;1.00;;;;;;4898022;29;20428;-88
2023/05/16 10:51:37;;;;;;;67.10;4.60;;;15.50;1.00;;;;;;4897828;29;20836;-88
2023/05/16 10:54:12;;;;;;;72.10;4.37;;;15.40;1.00;;;;;;4899005;29;20414;-88
2023/05/16 10:56:42;;;;;;;70.90;2.77;;;15.40;1.00;;;;;;4897864;29;20465;-88
2023/05/16 10:59:25;;;;;;;69.17;3.10;;;15.20;1.00;;;;;;4898440;29;20463;-88
2023/05/16 11:01:55;;;;;;;67.17;3.20;;;15.10;1.00;;;;;;4897324;29;20792;-88
2023/05/16 11:04:21;;;;;;;65.10;3.00;;;14.80;1.00;;;;;;4898582;29;20422;-88
2023/05/16 11:06:52;;;;;;;70.73;3.30;;;14.90;1.00;;;;;;4899679;29;20436;-88
2023/05/16 11:09:22;;;;;;;64.20;2.70;;;15.20;1.00;;;;;;4899411;29;20501;-88
2023/05/16 11:11:51;;;;;;;67.30;3.30;;;15.10;1.00;;;;;;4899429;29;20418;-88
2023/05/16 11:14:23;;;;;;;70.13;3.57;;;14.90;1.00;;;;;;4899258;29;20415;-88
2023/05/16 11:17:05;;;;;;;67.70;3.50;;;14.70;1.00;;;;;;4897525;29;20517;-88
2023/05/16 11:19:44;;;;;;;70.37;4.20;;;15.00;1.00;;;;;;4897697;29;20420;-88
2023/05/16 11:22:24;;;;;;;68.30;5.00;;;15.40;1.00;;;;;;4899408;29;20933;-88
2023/05/16 11:24:54;;;;;;;66.27;4.83;;;15.90;1.00;;;;;;4898582;29;20476;-88
2023/05/16 11:27:22;;;;;;;68.70;4.00;;;16.00;1.00;;;;;;4897991;29;20442;-88
2023/05/16 11:29:48;;;;;;;65.80;6.00;;;15.70;1.00;;;;;;4897518;29;20790;-87
2023/05/16 11:32:18;;;;;;;66.87;4.10;;;15.50;1.00;;;;;;4898531;29;20416;-88
2023/05/16 11:34:47;;;;;;;72.60;5.77;;;15.40;1.00;;;;;;4898787;29;20392;-88
2023/05/16 11:37:14;;;;;;;69.07;5.73;;;15.40;1.00;;;;;;4896919;29;20475;-87
2023/05/16 11:39:40;;;;;;;70.20;3.90;;;15.20;1.00;;;;;;4897204;29;20418;-89
2023/05/16 11:42:05;;;;;;;67.40;4.00;;;15.10;1.00;;;;;;4896739;29;20422;-89
2023/05/16 11:44:31;;;;;;;69.70;3.90;;;14.90;1.00;;;;;;4901791;29;20486;-88
2023/05/16 11:46:58;;;;;;;68.77;4.50;;;14.80;1.00;;;;;;4900443;29;20197;-88
2023/05/16 11:49:27;;;;;;;68.03;4.10;;;14.70;1.00;;;;;;4901751;29;20174;-87
2023/05/16 11:51:53;;;;;;;71.07;5.87;;;14.80;1.00;;;;;;4902081;29;20817;-88
2023/05/16 11:54:19;;;;;;;69.20;6.33;;;15.20;1.00;;;;;;4900549;29;20415;-86
2023/05/16 11:56:45;;;;;;;70.90;5.47;;;15.30;1.00;;;;;;4901729;29;20942;-87
2023/05/16 11:59:11;;;;;;;67.67;5.03;;;15.30;1.00;;;;;;4900624;29;20814;-88
2023/05/16 12:01:38;;;;;;;76.47;4.50;;;15.20;1.00;;;;;;4900311;29;20451;-88
2023/05/16 12:04:11;;;;;;;72.90;5.07;;;15.30;1.00;;;;;;4901476;29;20429;-87
2023/05/16 12:06:43;;;;;;;70.53;4.43;;;15.40;1.00;;;;;;4900467;29;20430;-87
2023/05/16 12:09:20;;;;;;;65.70;4.33;;;15.60;1.00;;;;;;4900431;29;20409;-88
2023/05/16 12:11:46;;;;;;;67.83;4.20;;;15.80;1.00;;;;;;4901293;29;20426;-88
2023/05/16 12:14:16;;;;;;;71.63;5.20;;;15.90;1.00;;;;;;4902403;29;20939;-88
2023/05/16 12:16:42;;;;;;;71.97;5.97;;;16.10;1.00;;;;;;4902613;29;20565;-87
2023/05/16 12:19:08;;;;;;;68.30;5.30;;;16.20;1.00;;;;;;4900365;29;20464;-88
2023/05/16 12:21:35;;;;;;;74.10;7.33;;;16.40;1.00;;;;;;4901626;29;20424;-87
2023/05/16 12:24:20;;;;;;;67.60;5.77;;;16.40;1.00;;;;;;4901594;29;20404;-87
2023/05/16 12:26:45;;;;;;;68.40;6.50;;;16.40;1.00;;;;;;4901240;29;20452;-88
2023/05/16 12:29:12;;;;;;;66.80;6.37;;;16.50;1.00;;;;;;4900159;29;20486;-88
2023/05/16 12:31:40;;;;;;;71.23;6.40;;;16.30;1.00;;;;;;4902149;29;20167;-89
2023/05/16 12:34:17;;;;;;;73.37;8.27;;;16.60;1.00;;;;;;4900491;29;20421;-88
2023/05/16 12:36:43;;;;;;;67.97;5.53;;;16.80;1.00;;;;;;4901245;29;20426;-88
2023/05/16 12:39:12;;;;;;;67.40;4.17;;;16.70;1.00;;;;;;4900770;29;20464;-87
2023/05/16 12:41:42;;;;;;;67.80;4.63;;;16.60;1.00;;;;;;4901294;29;20177;-87
2023/05/16 12:44:16;;;;;;;67.17;4.60;;;16.80;1.00;;;;;;4899383;29;20445;-87
2023/05/16 12:46:48;;;;;;;69.93;5.23;;;16.60;1.00;;;;;;4900109;29;20438;-88
2023/05/16 12:49:14;;;;;;;67.70;6.40;;;16.30;1.00;;;;;;4900890;29;20412;-87
2023/05/16 12:51:51;;;;;;;66.27;5.47;;;16.00;1.00;;;;;;4899699;29;20417;-88
2023/05/16 12:54:17;;;;;;;67.67;5.47;;;16.10;1.00;;;;;;4898547;29;20415;-87
2023/05/16 12:56:46;;;;;;;68.40;5.73;;;16.20;1.00;;;;;;4900929;29;20428;-88
2023/05/16 12:59:11;;;;;;;66.10;5.90;;;16.20;1.00;;;;;;4900335;29;20475;-87
2023/05/16 13:01:39;;;;;;;69.13;5.97;;;16.10;1.00;;;;;;4900399;29;20420;-86
2023/05/16 13:04:05;;;;;;;71.30;6.27;;;16.00;1.00;;;;;;4900833;29;20595;-88
2023/05/16 13:06:31;;;;;;;69.37;6.50;;;16.20;1.00;;;;;;4899894;29;20480;-87
2023/05/16 13:08:57;;;;;;;68.20;5.70;;;16.40;1.00;;;;;;4901098;29;20259;-87
2023/05/16 13:11:23;;;;;;;66.27;6.30;;;16.70;1.00;;;;;;4899696;29;20913;-87
2023/05/16 13:13:52;;;;;;;68.60;5.83;;;16.30;1.00;;;;;;4901163;29;20922;-86
2023/05/16 13:16:21;;;;;;;68.17;6.30;;;16.10;1.00;;;;;;4899327;29;20430;-88
2023/05/16 13:18:47;;;;;;;69.23;5.03;;;15.90;1.00;;;;;;4899434;29;20463;-86
2023/05/16 13:21:13;;;;;;;66.90;4.80;;;15.60;1.00;;;;;;4898758;29;20923;-88
2023/05/16 13:23:38;;;;;;;69.93;4.50;;;15.80;1.00;;;;;;4900047;29;20187;-87
2023/05/16 13:26:04;;;;;;;68.60;4.90;;;15.70;1.00;;;;;;4900398;29;20935;-87
2023/05/16 13:28:32;;;;;;;66.37;6.77;;;15.80;1.00;;;;;;4899769;29;20661;-87
2023/05/16 13:30:59;;;;;;;65.37;5.53;;;15.90;1.00;;;;;;4898677;29;20262;-87
2023/05/16 13:33:24;;;;;;;66.80;3.97;;;15.90;1.00;;;;;;4899044;29;20847;-87
2023/05/16 13:35:54;;;;;;;66.43;4.73;;;16.00;1.00;;;;;;4899529;29;20430;-88
2023/05/16 13:38:20;;;;;;;66.07;4.43;;;16.20;1.00;;;;;;4899667;29;20451;-88
2023/05/16 13:40:45;;;;;;;69.97;4.70;;;16.30;1.00;;;;;;4899367;29;20415;-87
2023/05/16 13:43:13;;;;;;;65.80;4.37;;;16.60;1.00;;;;;;4898127;29;20594;-87
2023/05/16 13:45:39;;;;;;;65.40;4.53;;;16.50;1.00;;;;;;4899698;29;20188;-88
2023/05/16 13:48:07;;;;;;;67.30;4.40;;;16.70;1.00;;;;;;4900366;29;20924;-88
2023/05/16 13:50:33;;;;;;;68.03;4.30;;;16.90;1.00;;;;;;4901426;29;20703;-87
2023/05/16 13:52:59;;;;;;;65.67;3.97;;;16.90;1.00;;;;;;4898641;29;20446;-87
2023/05/16 13:55:24;;;;;;;66.40;4.70;;;17.00;1.00;;;;;;4898981;29;20181;-87
2023/05/16 13:57:50;;;;;;;68.53;4.17;;;17.00;1.00;;;;;;4899612;29;20661;-87
2023/05/16 14:00:16;;;;;;;67.77;3.67;;;17.30;1.00;;;;;;4900589;29;20253;-87
2023/05/16 14:02:42;;;;;;;67.23;3.43;;;17.60;1.00;;;;;;4898725;29;20166;-87
2023/05/16 14:05:09;;;;;;;65.50;2.83;;;17.90;1.00;;;;;;4900221;29;20414;-86
2023/05/16 14:07:35;;;;;;;66.07;3.53;;;17.70;1.00;;;;;;4900294;29;20215;-86
2023/05/16 14:10:01;;;;;;;70.00;3.70;;;17.70;1.00;;;;;;4899324;29;20410;-87
2023/05/16 14:12:26;;;;;;;67.83;2.60;;;17.50;1.00;;;;;;4898009;29;20832;-88
2023/05/16 14:14:53;;;;;;;67.60;2.50;;;17.50;1.00;;;;;;4897657;29;20425;-87
2023/05/16 14:17:19;;;;;;;66.70;3.47;;;17.20;1.00;;;;;;4898647;29;20285;-88
2023/05/16 14:19:45;;;;;;;66.17;2.97;;;16.80;1.00;;;;;;4897738;29;20970;-88
2023/05/16 14:22:11;;;;;;;66.83;2.80;;;16.90;1.00;;;;;;4897692;29;20521;-87
2023/05/16 14:24:37;;;;;;;65.50;2.57;;;17.30;1.00;;;;;;4899604;29;20650;-87
2023/05/16 14:27:03;;;;;;;67.63;3.03;;;17.50;1.00;;;;;;4898802;29;20433;-87
2023/05/16 14:29:29;;;;;;;65.80;2.87;;;17.30;1.00;;;;;;4899152;29;20170;-88
2023/05/16 14:31:54;;;;;;;68.83;2.80;;;17.10;1.00;;;;;;4898859;29;20417;-87
2023/05/16 14:34:21;;;;;;;66.67;3.10;;;17.10;1.00;;;;;;4898178;29;20425;-87
2023/05/16 14:36:50;;;;;;;65.77;3.50;;;17.10;1.00;;;;;;4898120;29;20594;-87
2023/05/16 14:39:51;;;;;;;66.10;3.03;;;17.10;1.00;;;;;;4897759;29;20996;-89
2023/05/16 14:42:21;;;;;;;80.23;3.73;;;17.10;1.00;;;;;;4897837;29;20418;-87
2023/05/16 14:44:49;;;;;;;79.87;3.70;;;17.20;1.00;;;;;;4899039;29;20417;-87
2023/05/16 14:47:15;;;;;;;67.23;3.40;;;16.90;1.00;;;;;;4897922;29;20442;-87
2023/05/16 14:49:45;;;;;;;68.83;3.23;;;16.80;1.00;;;;;;4898116;29;20459;-88
2023/05/16 14:52:14;;;;;;;65.77;2.70;;;16.70;1.00;;;;;;4897894;29;20437;-87
2023/05/16 14:54:40;;;;;;;66.30;3.20;;;16.80;1.00;;;;;;4898136;29;20428;-87
2023/05/16 14:57:06;;;;;;;68.47;3.70;;;16.70;1.00;;;;;;4898520;29;20434;-87
2023/05/16 14:59:32;;;;;;;67.90;3.40;;;16.90;1.00;;;;;;4900367;29;20183;-87
2023/05/16 15:01:58;;;;;;;67.83;3.30;;;16.90;1.00;;;;;;4901127;29;20409;-87
2023/05/16 15:04:25;;;;;;;67.37;3.37;;;16.70;1.00;;;;;;4902017;29;20201;-87
2023/05/16 15:06:50;;;;;;;66.50;3.03;;;16.60;1.00;;;;;;4901201;29;20430;-87
2023/05/16 15:09:17;;;;;;;68.80;3.20;;;16.50;1.00;;;;;;4901232;29;20436;-87
2023/05/16 15:11:43;;;;;;;69.23;2.77;;;16.50;1.00;;;;;;4900544;29;20689;-87
2023/05/16 15:14:09;;;;;;;68.10;3.23;;;16.20;1.00;;;;;;4901075;29;20423;-87
2023/05/16 15:16:35;;;;;;;66.47;3.60;;;16.20;1.00;;;;;;4902524;29;20434;-87
2023/05/16 15:19:01;;;;;;;69.80;4.57;;;16.10;1.00;;;;;;4905455;29;20872;-87
2023/05/16 15:21:26;;;;;;;68.53;4.47;;;16.10;1.00;;;;;;4904634;29;20286;-87
2023/05/16 15:23:54;;;;;;;66.50;5.13;;;16.10;1.00;;;;;;4905624;29;20206;-88
2023/05/16 15:26:21;;;;;;;65.73;4.80;;;15.80;1.00;;;;;;4906234;29;20197;-87
2023/05/16 15:28:46;;;;;;;66.60;4.80;;;15.70;1.00;;;;;;4903848;29;20762;-88
2023/05/16 15:31:12;;;;;;;66.47;5.47;;;15.50;1.00;;;;;;4905332;29;20416;-87
2023/05/16 15:33:38;;;;;;;67.90;5.20;;;15.60;1.00;;;;;;4903956;29;20425;-87
2023/05/16 15:36:05;;;;;;;68.47;5.83;;;15.50;1.00;;;;;;4902973;29;20278;-87
2023/05/16 15:38:32;;;;;;;68.13;5.90;;;15.40;1.00;;;;;;4901608;29;20474;-87
2023/05/16 15:41:04;;;;;;;67.27;6.43;;;15.30;1.00;;;;;;4901508;29;20430;-87
2023/05/16 15:43:31;;;;;;;67.17;5.93;;;15.20;1.00;;;;;;4901569;29;20410;-87
2023/05/16 15:45:56;;;;;;;69.50;6.57;;;15.10;1.00;;;;;;4902447;29;20434;-87
2023/05/16 15:48:22;;;;;;;68.87;7.13;;;15.10;1.00;;;;;;4901861;29;20423;-87
2023/05/16 15:50:48;;;;;;;67.37;6.10;;;15.00;1.00;;;;;;4902914;29;20170;-87
2023/05/16 15:53:13;;;;;;;66.60;6.53;;;15.00;1.00;;;;;;4903985;29;20226;-86
2023/05/16 15:55:39;;;;;;;67.70;5.77;;;14.90;1.00;;;;;;4902891;29;20287;-87
2023/05/16 15:58:05;;;;;;;70.30;6.80;;;14.90;1.00;;;;;;4903876;29;20202;-87
2023/05/16 16:00:35;;;;;;;68.50;6.77;;;14.80;1.00;;;;;;4903142;29;20497;-87
2023/05/16 16:03:00;;;;;;;67.33;6.33;;;14.90;1.00;;;;;;4902182;29;20395;-87